createdAt,value
2019-04-25T00:01:38.298Z,0.0
2019-04-25T00:03:30.112Z,0.0
2019-04-25T00:06:29.739Z,0.0
2019-04-25T00:09:31.818Z,0.0
2019-04-25T00:12:28.174Z,0.0
2019-04-25T00:15:28.110Z,0.0
2019-04-25T00:18:28.149Z,0.0
2019-04-25T00:21:38.233Z,0.0
2019-04-25T00:24:37.034Z,0.0
2019-04-25T00:27:28.927Z,0.0
2019-04-25T00:30:31.221Z,0.0
2019-04-25T00:33:28.718Z,0.0
2019-04-25T00:36:28.669Z,0.0
2019-04-25T00:39:28.084Z,0.0
2019-04-25T00:42:28.192Z,0.0
2019-04-25T00:45:28.088Z,0.0
2019-04-25T00:48:28.032Z,0.0
2019-04-25T00:51:27.941Z,0.0
2019-04-25T00:54:28.179Z,0.0
2019-04-25T00:57:29.172Z,0.0
2019-04-25T01:01:59.021Z,0.0
2019-04-25T01:03:31.726Z,0.0
2019-04-25T01:06:28.266Z,0.0
2019-04-25T01:09:29.792Z,0.0
2019-04-25T01:12:28.549Z,0.0
2019-04-25T01:15:29.000Z,0.0
2019-04-25T01:18:29.307Z,0.0
2019-04-25T01:21:28.963Z,0.0
2019-04-25T01:24:29.134Z,0.0
2019-04-25T01:27:28.410Z,0.0
2019-04-25T01:30:31.122Z,0.0
2019-04-25T01:33:30.019Z,0.0
2019-04-25T01:38:29.201Z,0.0
2019-04-25T01:39:55.066Z,0.0
2019-04-25T01:42:55.843Z,0.0
2019-04-25T01:45:33.833Z,0.0
2019-04-25T01:48:28.424Z,0.0
2019-04-25T01:51:28.861Z,0.0
2019-04-25T01:54:30.066Z,0.0
2019-04-25T01:57:33.754Z,0.0
2019-04-25T02:00:37.912Z,0.0
2019-04-25T02:03:28.406Z,0.0
2019-04-25T02:06:28.831Z,0.0
2019-04-25T02:09:28.721Z,0.0
2019-04-25T02:12:34.072Z,0.0
2019-04-25T02:15:33.423Z,0.0
2019-04-25T02:18:28.178Z,0.0
2019-04-25T02:21:28.729Z,0.0
2019-04-25T02:24:28.055Z,0.0
2019-04-25T02:27:28.475Z,0.0
2019-04-25T02:30:29.067Z,0.0
2019-04-25T02:33:28.406Z,0.0
2019-04-25T02:36:28.876Z,0.0
2019-04-25T02:39:28.548Z,0.0
2019-04-25T02:42:30.533Z,0.0
2019-04-25T02:46:11.309Z,0.0
2019-04-25T02:49:26.528Z,0.0
2019-04-25T02:51:35.062Z,0.0
2019-04-25T02:54:28.738Z,0.0
2019-04-25T02:57:28.238Z,0.0
2019-04-25T03:00:49.242Z,0.0
2019-04-25T03:03:29.084Z,0.0
2019-04-25T03:06:28.677Z,0.0
2019-04-25T03:09:30.557Z,0.0
2019-04-25T03:12:45.935Z,0.0
2019-04-25T03:15:28.357Z,0.0
2019-04-25T03:18:31.986Z,0.0
2019-04-25T03:21:35.239Z,0.0
2019-04-25T03:24:30.267Z,0.0
2019-04-25T03:27:28.597Z,0.0
2019-04-25T03:30:31.306Z,0.0
2019-04-25T03:33:37.753Z,0.0
2019-04-25T03:36:30.491Z,0.0
2019-04-25T03:39:29.906Z,0.0
2019-04-25T03:42:29.089Z,0.0
2019-04-25T03:45:28.573Z,0.0
2019-04-25T03:48:29.325Z,0.0
2019-04-25T03:51:29.056Z,0.0
2019-04-25T03:54:28.715Z,0.0
2019-04-25T03:57:28.252Z,0.0
2019-04-25T04:00:28.704Z,0.0
2019-04-25T04:03:28.442Z,0.0
2019-04-25T04:06:28.975Z,0.0
2019-04-25T04:09:28.600Z,0.0
2019-04-25T04:12:28.967Z,0.0
2019-04-25T04:15:29.553Z,0.0
2019-04-25T04:18:47.935Z,0.02
2019-04-25T04:21:43.141Z,0.0
2019-04-25T04:24:34.197Z,0.02
2019-04-25T04:27:30.020Z,0.0
2019-04-25T04:30:28.688Z,0.0
2019-04-25T04:33:45.069Z,0.0
2019-04-25T04:36:33.803Z,0.04
2019-04-25T04:39:31.525Z,0.0
2019-04-25T04:42:29.299Z,0.05
2019-04-25T04:45:29.783Z,0.06
2019-04-25T04:48:28.796Z,0.03
2019-04-25T04:51:29.249Z,0.08
2019-04-25T04:54:28.884Z,0.09
2019-04-25T04:57:39.460Z,0.12
2019-04-25T05:00:30.282Z,0.17
2019-04-25T05:03:38.835Z,0.22
2019-04-25T05:06:36.183Z,0.26
2019-04-25T05:09:31.064Z,0.28
2019-04-25T05:12:29.406Z,0.3
2019-04-25T05:15:31.007Z,0.36
2019-04-25T05:18:46.759Z,0.49
2019-04-25T05:21:30.179Z,0.54
2019-04-25T05:24:30.401Z,0.62
2019-04-25T05:27:57.754Z,0.75
2019-04-25T05:30:38.717Z,0.87
2019-04-25T05:33:34.224Z,0.29
2019-04-25T05:36:40.802Z,0.1
2019-04-25T05:39:33.480Z,0.15
2019-04-25T05:42:51.901Z,0.19
2019-04-25T05:45:33.991Z,0.22
2019-04-25T05:48:30.154Z,0.2
2019-04-25T05:51:29.046Z,0.63
2019-04-25T05:54:29.839Z,0.88
2019-04-25T05:57:29.888Z,0.98
2019-04-25T06:00:30.891Z,1.26
2019-04-25T06:03:28.598Z,1.09
2019-04-25T06:06:28.306Z,1.41
2019-04-25T06:09:58.909Z,0.59
2019-04-25T06:12:37.868Z,0.74
2019-04-25T06:15:33.190Z,1.75
2019-04-25T06:18:43.851Z,0.72
2019-04-25T06:21:28.954Z,0.64
2019-04-25T06:24:34.838Z,0.7
2019-04-25T06:27:38.779Z,0.76
2019-04-25T06:30:31.811Z,0.87
2019-04-25T06:33:36.615Z,0.92
2019-04-25T06:36:37.939Z,0.62
2019-04-25T06:39:29.023Z,0.58
2019-04-25T06:42:29.545Z,0.48
2019-04-25T06:45:46.990Z,0.68
2019-04-25T06:48:35.185Z,0.58
2019-04-25T06:52:02.152Z,0.45
2019-04-25T06:54:29.562Z,0.56
2019-04-25T06:57:29.399Z,0.52
2019-04-25T07:00:30.079Z,0.36
2019-04-25T07:03:29.413Z,0.55
2019-04-25T07:06:29.379Z,0.42
2019-04-25T07:09:29.622Z,0.14
2019-04-25T07:12:30.550Z,2.22
2019-04-25T07:15:29.545Z,1.18
2019-04-25T07:18:32.412Z,1.31
2019-04-25T07:21:28.959Z,1.55
2019-04-25T07:24:31.467Z,1.02
2019-04-25T07:27:53.958Z,1.14
2019-04-25T07:30:54.486Z,1.12
2019-04-25T07:33:33.572Z,0.99
2019-04-25T07:36:28.947Z,1.43
2019-04-25T07:39:28.505Z,1.26
2019-04-25T07:42:29.816Z,1.51
2019-04-25T07:45:28.817Z,1.48
2019-04-25T07:48:28.454Z,1.75
2019-04-25T07:51:30.347Z,0.89
2019-04-25T07:54:29.040Z,2.06
2019-04-25T07:57:29.158Z,1.73
2019-04-25T08:00:29.724Z,1.47
2019-04-25T08:03:28.676Z,1.38
2019-04-25T08:06:29.367Z,1.55
2019-04-25T08:09:29.534Z,1.63
2019-04-25T08:12:28.363Z,1.62
2019-04-25T08:15:47.396Z,1.92
2019-04-25T08:18:28.912Z,1.96
2019-04-25T08:21:29.776Z,1.31
2019-04-25T08:24:29.414Z,1.3
2019-04-25T08:27:28.316Z,1.77
2019-04-25T08:30:29.783Z,1.6
2019-04-25T08:33:29.052Z,1.15
2019-04-25T08:36:28.881Z,1.93
2019-04-25T08:39:30.303Z,1.71
2019-04-25T08:42:29.096Z,1.55
2019-04-25T08:45:28.980Z,1.15
2019-04-25T08:48:34.516Z,0.94
2019-04-25T08:51:33.553Z,0.81
2019-04-25T08:54:41.114Z,0.83
2019-04-25T08:58:05.298Z,1.07
2019-04-25T09:00:40.461Z,1.06
2019-04-25T09:03:35.514Z,1.26
2019-04-25T09:06:28.453Z,1.46
2019-04-25T09:09:30.877Z,2.1
2019-04-25T09:12:29.088Z,1.38
2019-04-25T09:15:28.756Z,1.5
2019-04-25T09:18:28.517Z,1.95
2019-04-25T09:21:29.123Z,1.33
2019-04-25T09:24:28.888Z,1.32
2019-04-25T09:27:28.471Z,1.4
2019-04-25T09:30:29.058Z,1.76
2019-04-25T09:33:28.669Z,1.95
2019-04-25T09:36:28.557Z,1.61
2019-04-25T09:39:38.975Z,2.38
2019-04-25T09:42:29.099Z,2.37
2019-04-25T09:45:40.036Z,2.21
2019-04-25T09:48:35.343Z,1.93
2019-04-25T09:51:39.714Z,2.05
2019-04-25T09:54:43.807Z,1.99
2019-04-25T09:57:39.109Z,1.45
2019-04-25T10:00:47.657Z,2.26
2019-04-25T10:03:28.378Z,1.77
2019-04-25T10:06:29.086Z,2.27
2019-04-25T10:09:29.341Z,1.48
2019-04-25T10:12:28.965Z,1.52
2019-04-25T10:16:33.782Z,2.05
2019-04-25T10:18:28.433Z,1.91
2019-04-25T10:21:29.844Z,1.24
2019-04-25T10:24:28.460Z,1.1
2019-04-25T10:27:29.338Z,0.92
2019-04-25T10:30:34.975Z,2.54
2019-04-25T10:33:28.905Z,1.43
2019-04-25T10:36:28.610Z,2.09
2019-04-25T10:39:29.833Z,1.27
2019-04-25T10:42:28.949Z,1.23
2019-04-25T10:45:37.664Z,1.68
2019-04-25T10:48:28.603Z,1.5
2019-04-25T10:51:28.220Z,1.56
2019-04-25T10:54:28.683Z,1.54
2019-04-25T10:57:28.625Z,1.69
2019-04-25T11:00:36.528Z,1.44
2019-04-25T11:05:42.763Z,2.15
2019-04-25T11:06:33.583Z,1.9
2019-04-25T11:09:29.758Z,2.47
2019-04-25T11:12:28.183Z,2.65
2019-04-25T11:15:28.820Z,0.53
2019-04-25T11:18:28.540Z,0.87
2019-04-25T11:21:28.169Z,0.81
2019-04-25T11:24:28.598Z,1.86
2019-04-25T11:27:28.117Z,0.63
2019-04-25T11:30:30.675Z,0.58
2019-04-25T11:33:28.057Z,0.63
2019-04-25T11:36:28.770Z,0.66
2019-04-25T11:40:38.009Z,0.75
2019-04-25T11:42:28.957Z,0.76
2019-04-25T11:45:29.614Z,0.75
2019-04-25T11:48:29.252Z,0.71
2019-04-25T11:51:28.739Z,0.62
2019-04-25T11:54:33.512Z,0.8
2019-04-25T11:57:29.074Z,0.72
2019-04-25T12:00:37.530Z,0.57
2019-04-25T12:03:29.307Z,0.64
2019-04-25T12:06:28.859Z,0.62
2019-04-25T12:09:28.710Z,0.58
2019-04-25T12:12:28.138Z,0.58
2019-04-25T12:15:29.509Z,0.59
2019-04-25T12:18:28.989Z,0.6
2019-04-25T12:21:28.409Z,0.57
2019-04-25T12:24:28.069Z,0.52
2019-04-25T12:27:28.727Z,0.65
2019-04-25T12:30:37.475Z,0.8
2019-04-25T12:33:34.404Z,1.04
2019-04-25T12:36:28.871Z,0.92
2019-04-25T12:39:28.577Z,0.87
2019-04-25T12:42:28.317Z,0.67
2019-04-25T12:45:43.481Z,0.59
2019-04-25T12:48:28.532Z,0.82
2019-04-25T12:51:27.989Z,0.78
2019-04-25T12:54:28.507Z,0.77
2019-04-25T12:57:28.545Z,0.83
2019-04-25T13:00:29.525Z,0.79
2019-04-25T13:03:29.061Z,0.88
2019-04-25T13:06:28.931Z,0.86
2019-04-25T13:09:28.281Z,0.78
2019-04-25T13:12:29.174Z,0.73
2019-04-25T13:15:28.830Z,0.92
2019-04-25T13:18:28.425Z,0.95
2019-04-25T13:21:28.772Z,0.83
2019-04-25T13:24:28.283Z,0.85
2019-04-25T13:27:37.133Z,0.79
2019-04-25T13:31:27.791Z,0.88
2019-04-25T13:33:54.296Z,0.96
2019-04-25T13:36:28.700Z,0.83
2019-04-25T13:39:29.908Z,0.74
2019-04-25T13:42:28.649Z,0.76
2019-04-25T13:45:28.075Z,0.73
2019-04-25T13:48:29.453Z,0.73
2019-04-25T13:51:28.999Z,0.73
2019-04-25T13:54:28.725Z,0.78
2019-04-25T13:57:28.682Z,0.63
2019-04-25T14:00:28.416Z,0.58
2019-04-25T14:03:29.757Z,0.6
2019-04-25T14:06:28.434Z,0.54
2019-04-25T14:09:34.771Z,0.4
2019-04-25T14:12:29.285Z,0.42
2019-04-25T14:15:29.655Z,0.48
2019-04-25T14:18:39.161Z,0.5
2019-04-25T14:21:29.279Z,0.42
2019-04-25T14:24:36.011Z,0.49
2019-04-25T14:27:30.124Z,0.5
2019-04-25T14:30:32.615Z,0.57
2019-04-25T14:33:28.756Z,0.59
2019-04-25T14:36:28.660Z,0.58
2019-04-25T14:39:28.205Z,0.61
2019-04-25T14:42:28.926Z,0.54
2019-04-25T14:45:40.363Z,0.53
2019-04-25T14:48:29.305Z,0.49
2019-04-25T14:51:29.157Z,0.43
2019-04-25T14:54:40.805Z,0.41
2019-04-25T14:57:30.598Z,0.39
2019-04-25T15:00:38.842Z,0.43
2019-04-25T15:03:28.471Z,0.39
2019-04-25T15:06:29.754Z,0.43
2019-04-25T15:09:28.876Z,0.37
2019-04-25T15:12:29.349Z,0.31
2019-04-25T15:15:28.080Z,0.36
2019-04-25T15:18:29.069Z,0.3
2019-04-25T15:21:28.521Z,0.35
2019-04-25T15:24:28.206Z,0.37
2019-04-25T15:27:29.154Z,0.36
2019-04-25T15:30:34.726Z,0.34
2019-04-25T15:33:28.417Z,0.32
2019-04-25T15:36:35.651Z,0.37
2019-04-25T15:39:43.076Z,0.37
2019-04-25T15:42:44.460Z,0.41
2019-04-25T15:45:41.891Z,0.42
2019-04-25T15:48:28.915Z,0.45
2019-04-25T15:51:28.447Z,0.49
2019-04-25T15:54:29.613Z,0.41
2019-04-25T15:57:28.223Z,0.41
2019-04-25T16:00:35.432Z,0.32
2019-04-25T16:03:28.952Z,0.29
2019-04-25T16:06:29.741Z,0.27
2019-04-25T16:09:28.556Z,0.3
2019-04-25T16:12:28.732Z,0.3
2019-04-25T16:15:29.060Z,0.26
2019-04-25T16:18:28.640Z,0.24
2019-04-25T16:21:29.042Z,0.21
2019-04-25T16:24:29.003Z,0.18
2019-04-25T16:27:28.992Z,0.21
2019-04-25T16:30:33.305Z,0.18
2019-04-25T16:33:29.118Z,0.24
2019-04-25T16:36:29.540Z,0.26
2019-04-25T16:39:30.981Z,0.26
2019-04-25T16:42:30.271Z,0.21
2019-04-25T16:45:33.099Z,0.23
2019-04-25T16:48:34.306Z,0.16
2019-04-25T16:51:29.334Z,0.14
2019-04-25T16:54:29.301Z,0.18
2019-04-25T16:57:28.959Z,0.19
2019-04-25T17:01:33.838Z,0.19
2019-04-25T17:03:31.469Z,0.17
2019-04-25T17:06:29.942Z,0.1
2019-04-25T17:09:30.384Z,0.14
2019-04-25T17:12:29.661Z,0.13
2019-04-25T17:15:38.465Z,0.08
2019-04-25T17:18:32.450Z,0.07
2019-04-25T17:21:29.134Z,0.06
2019-04-25T17:24:28.746Z,0.06
2019-04-25T17:27:28.434Z,0.1
2019-04-25T17:30:28.290Z,0.05
2019-04-25T17:33:40.314Z,0.08
2019-04-25T17:36:35.711Z,0.08
2019-04-25T17:39:35.465Z,0.08
2019-04-25T17:42:28.374Z,0.08
2019-04-25T17:45:34.748Z,0.04
2019-04-25T17:48:28.458Z,0.07
2019-04-25T17:51:30.215Z,0.06
2019-04-25T17:54:32.780Z,0.01
2019-04-25T17:57:28.458Z,0.01
2019-04-25T18:00:37.842Z,0.05
2019-04-25T18:03:28.992Z,0.01
2019-04-25T18:06:28.684Z,0.05
2019-04-25T18:09:28.599Z,0.0
2019-04-25T18:12:28.045Z,0.0
2019-04-25T18:15:46.861Z,0.0
2019-04-25T18:18:39.176Z,0.0
2019-04-25T18:21:28.870Z,0.03
2019-04-25T18:25:51.171Z,0.02
2019-04-25T18:27:31.858Z,0.02
2019-04-25T18:30:28.633Z,0.0
2019-04-25T18:33:32.602Z,0.01
2019-04-25T18:36:36.297Z,0.01
2019-04-25T18:39:51.503Z,0.0
2019-04-25T18:43:38.053Z,0.0
2019-04-25T18:45:31.569Z,0.0
2019-04-25T18:48:29.460Z,0.0
2019-04-25T18:51:28.224Z,0.0
2019-04-25T18:55:10.659Z,0.0
2019-04-25T18:57:34.817Z,0.0
2019-04-25T19:00:42.238Z,0.0
2019-04-25T19:03:56.281Z,0.0
2019-04-25T19:06:28.956Z,0.0
2019-04-25T19:09:28.967Z,0.0
2019-04-25T19:12:32.661Z,0.0
2019-04-25T19:15:28.120Z,0.0
2019-04-25T19:18:29.047Z,0.0
2019-04-25T19:21:28.706Z,0.0
2019-04-25T19:24:28.942Z,0.0
2019-04-25T19:27:37.454Z,0.0
2019-04-25T19:30:28.369Z,0.0
2019-04-25T19:33:35.405Z,0.0
2019-04-25T19:36:30.790Z,0.0
2019-04-25T19:39:31.657Z,0.0
2019-04-25T19:45:28.688Z,0.0
2019-04-25T19:48:29.512Z,0.0
2019-04-25T19:51:29.187Z,0.0
2019-04-25T19:54:28.876Z,0.0
2019-04-25T19:57:28.601Z,0.0
2019-04-25T20:00:28.274Z,0.0
2019-04-25T20:03:49.516Z,0.0
2019-04-25T20:07:12.829Z,0.0
2019-04-25T20:11:39.776Z,0.0
2019-04-25T20:12:30.451Z,0.0
2019-04-25T20:15:29.310Z,0.0
2019-04-25T20:18:28.989Z,0.0
2019-04-25T20:21:28.378Z,0.0
2019-04-25T20:24:28.814Z,0.0
2019-04-25T20:27:28.167Z,0.0
2019-04-25T20:30:28.703Z,0.0
2019-04-25T20:33:28.070Z,0.0
2019-04-25T20:36:31.357Z,0.0
2019-04-25T20:39:28.809Z,0.0
2019-04-25T20:42:28.201Z,0.0
2019-04-25T20:45:28.679Z,0.0
2019-04-25T20:48:28.107Z,0.0
2019-04-25T20:51:28.663Z,0.0
2019-04-25T20:54:28.312Z,0.0
2019-04-25T20:57:29.034Z,0.0
2019-04-25T21:00:40.803Z,0.0
2019-04-25T21:03:28.513Z,0.0
2019-04-25T21:06:34.276Z,0.0
2019-04-25T21:09:28.923Z,0.0
2019-04-25T21:12:28.356Z,0.0
2019-04-25T21:15:39.818Z,0.0
2019-04-25T21:18:36.725Z,0.0
2019-04-25T21:21:28.409Z,0.0
2019-04-25T21:24:29.073Z,0.0
2019-04-25T21:27:28.792Z,0.0
2019-04-25T21:30:28.443Z,0.0
2019-04-25T21:33:29.273Z,0.0
2019-04-25T21:36:28.821Z,0.0
2019-04-25T21:39:37.001Z,0.0
2019-04-25T21:42:32.937Z,0.0
2019-04-25T21:45:28.299Z,0.0
2019-04-25T21:48:28.854Z,0.0
2019-04-25T21:51:36.599Z,0.0
2019-04-25T21:54:28.370Z,0.0
2019-04-25T21:57:28.716Z,0.0
2019-04-25T22:01:04.484Z,0.0
2019-04-25T22:03:28.653Z,0.0
2019-04-25T22:06:31.091Z,0.0
2019-04-25T22:09:29.908Z,0.0
2019-04-25T22:12:29.070Z,0.0
2019-04-25T22:15:28.605Z,0.0
2019-04-25T22:18:28.775Z,0.0
2019-04-25T22:21:37.893Z,0.0
2019-04-25T22:24:30.886Z,0.0
2019-04-25T22:27:36.660Z,0.0
2019-04-25T22:30:28.713Z,0.0
2019-04-25T22:33:42.342Z,0.0
2019-04-25T22:36:28.436Z,0.0
2019-04-25T22:39:29.307Z,0.0
2019-04-25T22:42:28.608Z,0.0
2019-04-25T22:45:28.302Z,0.0
2019-04-25T22:48:52.164Z,0.0
2019-04-25T22:51:29.106Z,0.0
2019-04-25T22:54:29.297Z,0.0
2019-04-25T22:57:29.343Z,0.0
2019-04-25T23:00:37.564Z,0.0
2019-04-25T23:03:38.706Z,0.0
2019-04-25T23:06:28.466Z,0.0
2019-04-25T23:09:28.405Z,0.0
2019-04-25T23:12:28.758Z,0.0
2019-04-25T23:15:28.301Z,0.0
2019-04-25T23:18:28.430Z,0.0
2019-04-25T23:21:29.168Z,0.0
2019-04-25T23:24:32.896Z,0.0
2019-04-25T23:27:51.240Z,0.0
2019-04-25T23:30:32.543Z,0.0
2019-04-25T23:33:28.502Z,0.0
2019-04-25T23:36:29.034Z,0.0
2019-04-25T23:39:28.890Z,0.0
2019-04-25T23:42:29.536Z,0.0
2019-04-25T23:45:29.818Z,0.0
2019-04-25T23:48:28.447Z,0.0
2019-04-25T23:51:30.408Z,0.0
2019-04-25T23:54:28.640Z,0.0
2019-04-25T23:57:28.825Z,0.0
